Time;durP1;ratioP1;P1;durP2;ratioP2;P2;SDS_P1;SDS_P2;PMS_P1;PMS_P2;Temp;Humidity;BMP_temperature;BMP_pressure;BME280_temperature;BME280_humidity;BME280_pressure;Samples;Min_cycle;Max_cycle;Signal;HPM_P1;HPM_P2
2021/03/15 00:00:22;;;;;;;4.77;1.77;;;;;;;-144.99;100.00;52427.72;5078721;28;21181;-77
2021/03/15 00:02:51;;;;;;;13.07;2.67;;;;;;;-144.99;100.00;52446.06;5070485;28;20654;-75
2021/03/15 00:05:18;;;;;;;16.10;3.73;;;;;;;-144.99;100.00;52472.56;5081888;28;20999;-75
2021/03/15 00:07:44;;;;;;;10.67;3.10;;;;;;;-144.99;100.00;52456.25;5070968;28;20631;-76
2021/03/15 00:10:12;;;;;;;26.67;3.40;;;;;;;-144.99;100.00;52452.16;5069902;28;20680;-74
2021/03/15 00:12:40;;;;;;;10.43;2.60;;;;;;;-144.99;100.00;52444.03;5070721;28;20233;-75
2021/03/15 00:15:08;;;;;;;7.83;2.27;;;;;;;-144.99;100.00;52403.25;5069115;28;20684;-76
2021/03/15 00:17:34;;;;;;;8.40;2.30;;;;;;;-144.99;100.00;52435.88;5072815;28;20626;-76
2021/03/15 00:20:00;;;;;;;9.03;2.73;;;;;;;-144.99;100.00;52492.94;5070125;28;20633;-76
2021/03/15 00:22:26;;;;;;;8.33;2.43;;;;;;;-144.99;100.00;52431.78;5072881;28;21052;-75
2021/03/15 00:24:52;;;;;;;15.43;6.33;;;;;;;-144.99;100.00;52433.81;5069097;28;20247;-74
2021/03/15 00:27:18;;;;;;;6.47;2.07;;;;;;;-144.99;100.00;52439.94;5069780;28;20619;-75
2021/03/15 00:29:44;;;;;;;16.33;2.97;;;;;;;-144.99;100.00;52423.63;5071068;28;20212;-74
2021/03/15 00:32:10;;;;;;;16.17;6.83;;;;;;;-144.99;100.00;52439.94;5067663;28;20714;-76
2021/03/15 00:34:36;;;;;;;14.77;3.57;;;;;;;-144.99;100.00;52415.47;5078713;28;20192;-78
2021/03/15 00:37:03;;;;;;;19.00;3.67;;;;;;;-144.99;100.00;52458.28;4712589;28;9999629;-77
2021/03/15 00:39:29;;;;;;;14.90;4.40;;;;;;;-144.99;100.00;52407.31;5072245;28;20205;-75
2021/03/15 00:41:55;;;;;;;22.43;6.03;;;;;;;-144.99;100.00;52435.88;5077566;28;20730;-77
2021/03/15 00:44:22;;;;;;;18.70;5.73;;;;;;;-144.99;100.00;52427.72;5078209;28;20449;-74
2021/03/15 00:46:48;;;;;;;23.10;6.83;;;;;;;-144.99;100.00;52423.63;5085118;28;20626;-76
2021/03/15 00:49:14;;;;;;;8.40;4.43;;;;;;;-144.99;100.00;52439.94;5079133;28;21084;-76
2021/03/15 00:51:40;;;;;;;11.63;3.27;;;;;;;-144.99;100.00;52448.09;5087519;28;20224;-75
2021/03/15 00:54:06;;;;;;;14.27;5.17;;;;;;;-144.99;100.00;52417.53;5070205;28;20220;-75
2021/03/15 00:56:33;;;;;;;16.77;3.00;;;;;;;-144.99;100.00;52456.25;5083939;28;21031;-75
2021/03/15 00:58:59;;;;;;;9.70;2.07;;;;;;;-144.99;100.00;52423.63;5077723;28;20623;-75
2021/03/15 01:01:26;;;;;;;11.50;3.00;;;;;;;-144.99;100.00;52444.03;5072209;28;21172;-74
2021/03/15 01:03:52;;;;;;;10.23;2.83;;;;;;;-144.99;100.00;52413.44;5075549;28;20658;-74
2021/03/15 01:06:18;;;;;;;10.00;4.47;;;;;;;-144.99;100.00;52427.72;5076891;28;20638;-74
2021/03/15 01:08:44;;;;;;;10.13;2.20;;;;;;;-144.99;100.00;52399.19;5074563;28;20611;-76
2021/03/15 01:11:11;;;;;;;11.53;2.63;;;;;;;-144.99;100.00;52403.25;5077735;28;20680;-75
2021/03/15 01:13:37;;;;;;;10.23;4.23;;;;;;;-144.99;100.00;52431.78;5072302;28;20642;-73
2021/03/15 01:16:04;;;;;;;7.20;2.37;;;;;;;-144.99;100.00;52452.16;5072755;28;20621;-73
2021/03/15 01:18:31;;;;;;;11.80;3.27;;;;;;;-144.99;100.00;52460.31;5071344;28;20641;-72
2021/03/15 01:20:57;;;;;;;9.33;1.87;;;;;;;-144.99;100.00;52444.03;5073039;28;20690;-73
2021/03/15 01:23:23;;;;;;;6.83;2.53;;;;;;;-144.99;100.00;52456.25;5079556;28;20727;-74
2021/03/15 01:25:50;;;;;;;8.43;3.37;;;;;;;-144.99;100.00;52419.56;5071583;28;20610;-73
2021/03/15 01:28:18;;;;;;;10.70;3.83;;;;;;;-144.99;100.00;52403.25;5070820;28;20896;-73
2021/03/15 01:30:45;;;;;;;11.70;2.80;;;;;;;-144.99;100.00;52407.31;5067942;28;21175;-73
2021/03/15 01:33:12;;;;;;;8.77;2.10;;;;;;;-144.99;100.00;52419.56;5065300;28;20708;-73
2021/03/15 01:35:39;;;;;;;9.77;4.53;;;;;;;-144.99;100.00;52435.88;5077286;28;20657;-73
2021/03/15 01:38:06;;;;;;;10.87;4.40;;;;;;;-144.99;100.00;52439.94;5081425;28;20618;-73
2021/03/15 01:40:33;;;;;;;22.23;6.57;;;;;;;-144.99;100.00;52419.56;5081256;28;20742;-72
2021/03/15 01:42:59;;;;;;;19.87;2.77;;;;;;;-144.99;100.00;52460.31;5081883;28;20656;-73
2021/03/15 01:45:25;;;;;;;14.60;3.67;;;;;;;-144.99;100.00;52472.56;5077002;28;21113;-72
2021/03/15 01:47:52;;;;;;;14.73;2.67;;;;;;;-144.99;100.00;52431.78;5081605;28;20629;-73
2021/03/15 01:50:20;;;;;;;8.40;4.07;;;;;;;-144.99;100.00;52448.09;5076973;28;20630;-73
2021/03/15 01:52:50;;;;;;;13.47;3.27;;;;;;;-144.99;100.00;52444.03;5081527;28;20677;-72
2021/03/15 01:55:17;;;;;;;11.80;3.73;;;;;;;-144.99;100.00;52417.53;5081480;28;20635;-72
2021/03/15 01:57:44;;;;;;;15.33;2.90;;;;;;;-144.99;100.00;52435.88;5079261;28;20626;-72
2021/03/15 02:00:12;;;;;;;14.67;4.83;;;;;;;-144.99;100.00;52419.56;5073304;28;20631;-72
2021/03/15 02:02:40;;;;;;;19.50;5.73;;;;;;;-144.99;100.00;52415.47;5081323;28;20641;-73
2021/03/15 02:05:07;;;;;;;13.10;2.97;;;;;;;-144.99;100.00;52425.66;5075961;28;20630;-73
2021/03/15 02:07:34;;;;;;;13.20;3.47;;;;;;;-144.99;100.00;52407.31;5072197;28;21120;-71
2021/03/15 02:10:01;;;;;;;15.83;6.30;;;;;;;-144.99;100.00;52423.63;5071125;28;20614;-71
2021/03/15 02:12:38;;;;;;;11.40;3.57;;;;;;;-144.99;100.00;52439.94;5070961;28;20786;-72
2021/03/15 02:15:14;;;;;;;17.93;3.93;;;;;;;-144.99;100.00;52460.31;5074754;28;20622;-74
2021/03/15 02:17:47;;;;;;;12.17;3.50;;;;;;;-144.99;100.00;52425.66;5071094;28;20989;-73
2021/03/15 02:20:58;;;;;;;11.80;4.43;;;;;;;-144.99;100.00;52452.16;5082718;28;20641;-74
2021/03/15 02:23:28;;;;;;;12.63;4.67;;;;;;;-144.99;100.00;52409.38;5075971;28;20658;-75
2021/03/15 02:26:25;;;;;;;7.33;3.13;;;;;;;-144.99;100.00;52448.09;5067570;28;21178;-74
2021/03/15 02:29:11;;;;;;;20.90;5.20;;;;;;;-144.99;100.00;52427.72;5068164;28;20638;-74
2021/03/15 02:32:16;;;;;;;20.43;4.97;;;;;;;-144.99;100.00;52446.06;5069617;28;20713;-74
2021/03/15 02:35:02;;;;;;;17.37;6.33;;;;;;;-144.99;100.00;52450.13;5050352;28;20884;-75
2021/03/15 02:37:32;;;;;;;22.60;5.43;;;;;;;-144.99;100.00;52439.94;5072247;28;20631;-74
2021/03/15 02:40:06;;;;;;;23.00;4.67;;;;;;;-144.99;100.00;52423.63;5117854;22;20697;-72
2021/03/15 02:42:33;;;;;;;20.13;4.53;;;;;;;-144.99;100.00;52423.63;5087946;28;20624;-71
2021/03/15 02:45:00;;;;;;;18.37;4.00;;;;;;;-144.99;100.00;52407.31;5102074;28;20666;-71
2021/03/15 02:47:28;;;;;;;14.60;3.50;;;;;;;-144.99;100.00;52464.41;5102342;28;21151;-71
2021/03/15 02:49:58;;;;;;;12.57;4.37;;;;;;;-144.99;100.00;52427.72;5104251;28;20660;-71
2021/03/15 02:52:26;;;;;;;12.30;4.07;;;;;;;-144.99;100.00;52411.41;5101293;28;20645;-71
2021/03/15 02:54:55;;;;;;;19.20;2.97;;;;;;;-144.99;100.00;52419.56;5102685;28;20617;-71
2021/03/15 02:57:22;;;;;;;16.33;3.93;;;;;;;-144.99;100.00;52452.16;5098219;28;20741;-72
2021/03/15 02:59:50;;;;;;;16.17;4.90;;;;;;;-144.99;100.00;52431.78;5104921;28;20644;-71
2021/03/15 03:02:18;;;;;;;22.43;3.60;;;;;;;-144.99;100.00;52407.31;5101816;28;20614;-71
2021/03/15 03:04:46;;;;;;;10.87;3.40;;;;;;;-144.99;100.00;52439.94;5093739;28;20625;-71
2021/03/15 03:07:12;;;;;;;11.87;3.13;;;;;;;-144.99;100.00;52439.94;5091938;28;21011;-72
2021/03/15 03:09:40;;;;;;;18.63;3.33;;;;;;;-144.99;100.00;52425.66;5102132;28;20656;-70
2021/03/15 03:12:09;;;;;;;22.63;6.03;;;;;;;-144.99;100.00;52415.47;5102617;28;20645;-71
2021/03/15 03:14:36;;;;;;;10.40;3.57;;;;;;;-144.99;100.00;52403.25;5100286;28;20917;-72
2021/03/15 03:17:03;;;;;;;18.43;3.93;;;;;;;-144.99;100.00;52444.03;5100608;28;20617;-72
2021/03/15 03:19:30;;;;;;;11.23;4.37;;;;;;;-144.99;100.00;52407.31;5100561;28;20649;-72
2021/03/15 03:21:57;;;;;;;30.90;4.80;;;;;;;-144.99;100.00;52437.91;5103321;28;20744;-72
2021/03/15 03:24:24;;;;;;;13.47;4.17;;;;;;;-144.99;100.00;52427.72;5098667;28;20967;-72
2021/03/15 03:26:52;;;;;;;13.67;4.13;;;;;;;-144.99;100.00;52452.16;5088004;28;20674;-72
2021/03/15 03:29:19;;;;;;;15.33;4.90;;;;;;;-144.99;100.00;52454.22;5096529;28;20668;-71
2021/03/15 03:31:48;;;;;;;9.73;5.30;;;;;;;-144.99;100.00;52395.09;5095638;28;20679;-72
2021/03/15 03:34:14;;;;;;;12.37;4.20;;;;;;;-144.99;100.00;52413.44;5093230;28;20617;-71
2021/03/15 03:36:42;;;;;;;9.53;3.63;;;;;;;-144.99;100.00;52399.19;5101046;28;20622;-71
2021/03/15 03:39:09;;;;;;;8.10;4.93;;;;;;;-144.99;100.00;52427.72;5100868;28;21065;-73
2021/03/15 03:41:36;;;;;;;10.27;4.13;;;;;;;-144.99;100.00;52464.41;5099111;28;21078;-73
2021/03/15 03:44:03;;;;;;;14.23;3.90;;;;;;;-144.99;100.00;52388.97;5098261;28;20671;-72
2021/03/15 03:46:29;;;;;;;10.77;4.77;;;;;;;-144.99;100.00;52456.25;5101691;28;20621;-72
2021/03/15 03:48:56;;;;;;;10.43;4.40;;;;;;;-144.99;100.00;52431.78;5098212;28;20650;-70
2021/03/15 03:51:26;;;;;;;6.77;3.30;;;;;;;-144.99;100.00;52476.63;5102495;28;20226;-72
2021/03/15 03:53:57;;;;;;;13.40;4.63;;;;;;;-144.99;100.00;52431.78;5100056;28;20613;-72
2021/03/15 03:56:25;;;;;;;10.37;3.80;;;;;;;-144.99;100.00;52448.09;5101105;28;21134;-72
2021/03/15 03:58:54;;;;;;;11.47;4.13;;;;;;;-144.99;100.00;52419.56;5098566;28;20651;-71
2021/03/15 04:01:28;;;;;;;7.20;3.83;;;;;;;-144.99;100.00;52395.09;5099615;28;20631;-72
2021/03/15 04:03:55;;;;;;;14.43;4.63;;;;;;;-144.99;100.00;52435.88;5091620;28;20626;-71
2021/03/15 04:06:26;;;;;;;11.23;6.03;;;;;;;-144.99;100.00;52419.56;5091160;28;20629;-72
2021/03/15 04:08:56;;;;;;;9.50;4.10;;;;;;;-144.99;100.00;52403.25;5097367;28;21272;-71
2021/03/15 04:11:23;;;;;;;11.53;4.27;;;;;;;-144.99;100.00;52444.03;5100829;28;20777;-72
2021/03/15 04:13:52;;;;;;;11.03;5.87;;;;;;;-144.99;100.00;52435.88;5103878;28;21162;-72
2021/03/15 04:16:19;;;;;;;11.97;5.47;;;;;;;-144.99;100.00;52464.41;5095340;28;20614;-71
2021/03/15 04:18:50;;;;;;;8.57;3.60;;;;;;;-144.99;100.00;52419.56;5101046;28;20713;-71
2021/03/15 04:21:19;;;;;;;10.97;3.93;;;;;;;-144.99;100.00;52472.56;5100179;28;21195;-72
2021/03/15 04:23:48;;;;;;;9.47;3.53;;;;;;;-144.99;100.00;52419.56;5102242;28;20711;-72
2021/03/15 04:26:14;;;;;;;11.83;4.50;;;;;;;-144.99;100.00;52431.78;5098560;28;20618;-71
2021/03/15 04:28:41;;;;;;;7.93;3.27;;;;;;;-144.99;100.00;52419.56;5098638;28;21205;-72
2021/03/15 04:31:09;;;;;;;7.83;2.43;;;;;;;-144.99;100.00;52419.56;5093156;28;20641;-72
2021/03/15 04:33:37;;;;;;;10.27;3.00;;;;;;;-144.99;100.00;52429.75;5091895;28;20621;-72
2021/03/15 04:36:06;;;;;;;14.70;3.90;;;;;;;-144.99;100.00;52413.44;5097808;28;21187;-72
2021/03/15 04:38:34;;;;;;;6.40;3.80;;;;;;;-144.99;100.00;52419.56;5104453;28;21195;-72
2021/03/15 04:41:01;;;;;;;7.30;2.67;;;;;;;-144.99;100.00;52444.03;5092615;28;20618;-72
2021/03/15 04:43:27;;;;;;;8.70;2.90;;;;;;;-144.99;100.00;52427.72;5101732;28;20624;-72
2021/03/15 04:45:54;;;;;;;8.80;3.30;;;;;;;-144.99;100.00;52446.06;5098139;28;20610;-72
2021/03/15 04:48:21;;;;;;;4.67;2.47;;;;;;;-144.99;100.00;52433.81;5101757;28;20617;-72
2021/03/15 04:50:52;;;;;;;8.30;3.83;;;;;;;-144.99;100.00;52433.81;5098323;28;20649;-71
2021/03/15 04:53:20;;;;;;;10.23;4.83;;;;;;;-144.99;100.00;52444.03;5100989;28;20641;-71
2021/03/15 04:55:46;;;;;;;11.70;3.50;;;;;;;-144.99;100.00;52472.56;5102727;28;20610;-74
2021/03/15 04:58:14;;;;;;;7.57;3.00;;;;;;;-144.99;100.00;52431.78;5097871;28;20679;-72
2021/03/15 05:00:43;;;;;;;10.27;3.73;;;;;;;-144.99;100.00;52419.56;5097839;28;20658;-72
2021/03/15 05:03:12;;;;;;;10.43;3.60;;;;;;;-144.99;100.00;52439.94;5096598;28;20626;-71
2021/03/15 05:05:40;;;;;;;7.03;4.87;;;;;;;-144.99;100.00;52425.66;5089923;28;20607;-70
2021/03/15 05:08:07;;;;;;;5.63;2.73;;;;;;;-144.99;100.00;52439.94;5093695;28;21365;-70
2021/03/15 05:10:35;;;;;;;5.47;3.70;;;;;;;-144.99;100.00;52413.44;5100509;28;20965;-70
2021/03/15 05:13:04;;;;;;;7.40;3.07;;;;;;;-144.99;100.00;52441.97;5102464;28;21276;-70
2021/03/15 05:15:31;;;;;;;6.97;4.47;;;;;;;-144.99;100.00;52427.72;5095985;28;20629;-69
2021/03/15 05:17:59;;;;;;;6.77;3.40;;;;;;;-144.99;100.00;52431.78;5101275;28;20628;-69
2021/03/15 05:20:26;;;;;;;9.90;3.53;;;;;;;-144.99;100.00;52439.94;5103501;28;21008;-70
2021/03/15 05:22:53;;;;;;;10.67;4.67;;;;;;;-144.99;100.00;52476.63;5098463;28;20621;-70
2021/03/15 05:25:21;;;;;;;8.70;3.93;;;;;;;-144.99;100.00;52415.47;5101353;28;20765;-71
2021/03/15 05:27:50;;;;;;;10.87;4.27;;;;;;;-144.99;100.00;52427.72;5096234;28;20623;-69
2021/03/15 05:30:19;;;;;;;11.00;4.57;;;;;;;-144.99;100.00;52407.31;5093512;28;20645;-72
2021/03/15 05:32:49;;;;;;;10.73;5.03;;;;;;;-144.99;100.00;52450.13;5083607;28;21224;-72
2021/03/15 05:35:16;;;;;;;14.70;4.47;;;;;;;-144.99;100.00;52452.16;5100255;28;20605;-72
2021/03/15 05:37:43;;;;;;;7.07;4.10;;;;;;;-144.99;100.00;52464.41;5096933;28;20618;-73
2021/03/15 05:40:11;;;;;;;9.23;4.17;;;;;;;-144.99;100.00;52462.34;5093213;28;20650;-72
2021/03/15 05:42:46;;;;;;;14.67;4.23;;;;;;;-144.99;100.00;52411.41;5101400;28;20611;-72
2021/03/15 05:45:25;;;;;;;12.23;4.23;;;;;;;-144.99;100.00;52407.31;5095355;28;20632;-73
2021/03/15 05:48:12;;;;;;;8.40;4.00;;;;;;;-144.99;100.00;52415.47;5089156;28;20605;-72
2021/03/15 05:51:03;;;;;;;9.10;4.23;;;;;;;-144.99;100.00;52419.56;5099240;28;20734;-73
2021/03/15 05:53:50;;;;;;;14.13;4.53;;;;;;;-144.99;100.00;52456.25;5102859;28;20692;-74
2021/03/15 05:56:30;;;;;;;13.87;4.73;;;;;;;-144.99;100.00;52409.38;5104235;28;20637;-73
2021/03/15 05:59:37;;;;;;;12.10;5.77;;;;;;;-144.99;100.00;52403.25;5099096;28;20644;-72
2021/03/15 06:02:16;;;;;;;14.10;5.50;;;;;;;-144.99;100.00;52439.94;4998652;28;20832;-73
2021/03/15 06:04:59;;;;;;;12.43;4.13;;;;;;;-144.99;100.00;52399.19;5001168;28;20628;-74
2021/03/15 06:07:29;;;;;;;16.47;5.03;;;;;;;-144.99;100.00;52419.56;5062123;28;20628;-71
2021/03/15 06:10:04;;;;;;;11.10;5.33;;;;;;;-144.99;100.00;52435.88;5102473;28;20655;-72
2021/03/15 06:12:38;;;;;;;10.00;4.83;;;;;;;-144.99;100.00;52435.88;5114397;28;21032;-72
2021/03/15 06:15:05;;;;;;;7.77;5.70;;;;;;;-144.99;100.00;52435.88;5101411;28;20606;-72
2021/03/15 06:17:35;;;;;;;8.00;4.47;;;;;;;-144.99;100.00;52431.78;5098751;28;20987;-72
2021/03/15 06:20:03;;;;;;;10.00;5.17;;;;;;;-144.99;100.00;52433.81;5105372;28;20969;-72
2021/03/15 06:22:31;;;;;;;14.17;6.90;;;;;;;-144.99;100.00;52446.06;5105593;28;20609;-72
2021/03/15 06:24:57;;;;;;;16.60;6.70;;;;;;;-144.99;100.00;52427.72;5102627;28;20628;-71
2021/03/15 06:27:24;;;;;;;18.37;11.97;;;;;;;-144.99;100.00;52480.72;5103619;28;20621;-74
2021/03/15 06:29:51;;;;;;;12.53;5.97;;;;;;;-144.99;100.00;52448.09;5100250;28;21226;-71
2021/03/15 06:32:18;;;;;;;14.93;6.77;;;;;;;-144.99;100.00;52456.25;5096060;28;20653;-70
2021/03/15 06:34:47;;;;;;;25.90;5.73;;;;;;;-144.99;100.00;52429.75;5098725;28;20613;-73
2021/03/15 06:37:16;;;;;;;15.83;10.07;;;;;;;-144.99;100.00;52415.47;5104566;28;20617;-71
2021/03/15 06:39:43;;;;;;;18.33;7.90;;;;;;;-144.99;100.00;52407.31;5102565;28;20703;-72
2021/03/15 06:42:11;;;;;;;10.97;6.07;;;;;;;-144.99;100.00;52386.94;5103148;28;20607;-72
2021/03/15 06:44:39;;;;;;;10.90;6.20;;;;;;;-144.99;100.00;52415.47;5102201;28;20625;-71
2021/03/15 06:47:05;;;;;;;21.03;6.80;;;;;;;-144.99;100.00;52427.72;5106717;28;20621;-71
2021/03/15 06:49:32;;;;;;;17.63;6.17;;;;;;;-144.99;100.00;52433.81;5103142;28;21140;-71
2021/03/15 06:52:04;;;;;;;18.87;6.30;;;;;;;-144.99;100.00;52419.56;5108675;28;20769;-72
2021/03/15 06:54:30;;;;;;;11.50;5.23;;;;;;;-144.99;100.00;52425.66;5109861;28;20604;-73
2021/03/15 06:57:17;;;;;;;15.40;6.03;;;;;;;-144.99;100.00;52395.09;5103063;28;21259;-73
2021/03/15 06:59:51;;;;;;;13.23;6.07;;;;;;;-144.99;100.00;52456.25;5105087;28;20653;-71
2021/03/15 07:02:26;;;;;;;20.47;5.50;;;;;;;-144.99;100.00;52407.31;5104125;28;20602;-72
2021/03/15 07:04:54;;;;;;;10.83;4.67;;;;;;;-144.99;100.00;52423.63;5088627;28;21194;-71
2021/03/15 07:07:25;;;;;;;11.03;3.83;;;;;;;-144.99;100.00;52423.63;5094669;28;20617;-72
2021/03/15 07:09:52;;;;;;;14.77;5.70;;;;;;;-144.99;100.00;52413.44;5103721;28;20642;-72
2021/03/15 07:12:19;;;;;;;13.53;5.30;;;;;;;-144.99;100.00;52415.47;5109772;28;20636;-72
2021/03/15 07:14:46;;;;;;;11.90;4.40;;;;;;;-144.99;100.00;52464.41;5103579;28;20674;-72
2021/03/15 07:17:21;;;;;;;11.50;4.50;;;;;;;-144.99;100.00;52415.47;5097996;28;20626;-73
2021/03/15 07:19:47;;;;;;;12.17;4.10;;;;;;;-144.99;100.00;52427.72;5102208;28;20636;-72
2021/03/15 07:22:21;;;;;;;11.60;5.10;;;;;;;-144.99;100.00;52444.03;5104860;28;20625;-73
2021/03/15 07:25:06;;;;;;;5.53;2.60;;;;;;;-144.99;100.00;52429.75;5103879;28;20641;-73
2021/03/15 07:27:33;;;;;;;7.03;2.80;;;;;;;-144.99;100.00;52429.75;5101753;28;20687;-71
2021/03/15 07:30:32;;;;;;;6.87;3.23;;;;;;;-144.99;100.00;52417.53;5099403;28;20637;-72
2021/03/15 07:32:59;;;;;;;7.50;3.33;;;;;;;-144.99;100.00;52452.16;5092828;28;20679;-71
2021/03/15 07:35:28;;;;;;;7.80;3.37;;;;;;;-144.99;100.00;52407.31;5102463;28;20625;-72
2021/03/15 07:37:54;;;;;;;8.27;3.50;;;;;;;-144.99;100.00;52419.56;5103906;28;20609;-72
2021/03/15 07:40:39;;;;;;;10.67;2.87;;;;;;;-144.99;100.00;52423.63;5097183;28;20653;-72
2021/03/15 07:43:07;;;;;;;7.80;4.63;;;;;;;-144.99;100.00;52419.56;5097647;28;20987;-72
2021/03/15 07:45:37;;;;;;;12.43;3.57;;;;;;;-144.99;100.00;52393.06;5102226;28;20624;-73
2021/03/15 07:48:07;;;;;;;7.53;3.10;;;;;;;-144.99;100.00;52415.47;5101138;28;20625;-74
2021/03/15 07:50:34;;;;;;;9.67;4.00;;;;;;;-144.99;100.00;52407.31;5099810;28;20668;-72
2021/03/15 07:53:00;;;;;;;9.63;4.10;;;;;;;-144.99;100.00;52427.72;5105366;28;20655;-72
2021/03/15 07:55:33;;;;;;;8.87;2.83;;;;;;;-144.99;100.00;52378.78;5106368;28;20725;-73
2021/03/15 07:58:00;;;;;;;14.80;5.30;;;;;;;-144.99;100.00;52415.47;5105789;28;20635;-74
2021/03/15 08:00:26;;;;;;;8.60;3.23;;;;;;;-144.99;100.00;52427.72;5100609;28;20658;-70
2021/03/15 08:02:52;;;;;;;10.13;3.67;;;;;;;-144.99;100.00;52370.63;5103087;28;20620;-73
2021/03/15 08:05:18;;;;;;;12.50;4.90;;;;;;;-144.99;100.00;52403.25;5093310;28;20609;-73
2021/03/15 08:07:44;;;;;;;11.03;3.47;;;;;;;-144.99;100.00;52403.25;5094950;28;20204;-74
2021/03/15 08:10:11;;;;;;;13.17;3.90;;;;;;;-144.99;100.00;52382.88;5099757;28;20641;-73
2021/03/15 08:12:38;;;;;;;14.70;4.00;;;;;;;-144.99;100.00;52399.19;5106700;28;20648;-72
2021/03/15 08:15:07;;;;;;;13.10;3.70;;;;;;;-144.99;100.00;52435.88;5097674;28;20962;-73
2021/03/15 08:17:36;;;;;;;16.53;3.90;;;;;;;-144.99;100.00;52376.75;5101777;28;21198;-71
2021/03/15 08:20:05;;;;;;;16.87;4.17;;;;;;;-144.99;100.00;52407.31;5102591;28;21224;-74
2021/03/15 08:22:33;;;;;;;9.77;2.67;;;;;;;-144.99;100.00;52391.03;5102761;28;20618;-73
2021/03/15 08:25:01;;;;;;;9.83;3.50;;;;;;;-144.99;100.00;52437.91;5097118;28;21170;-72
2021/03/15 08:27:30;;;;;;;15.67;4.43;;;;;;;-144.99;100.00;52401.22;5102681;28;20613;-72
2021/03/15 08:30:00;;;;;;;8.30;4.13;;;;;;;-144.99;100.00;52403.25;5091978;28;20656;-71
2021/03/15 08:32:28;;;;;;;15.53;3.20;;;;;;;-144.99;100.00;52342.09;5082964;28;20661;-73
2021/03/15 08:34:54;;;;;;;12.87;3.47;;;;;;;-144.99;100.00;52372.69;5097466;28;20620;-72
2021/03/15 08:37:52;;;;;;;10.77;2.97;;;;;;;-144.99;100.00;52399.19;5098981;28;20625;-72
2021/03/15 08:43:23;;;;;;;12.60;4.87;;;;;;;-144.99;100.00;52417.53;5066222;28;20682;-76
2021/03/15 08:45:51;;;;;;;12.37;3.67;;;;;;;-144.99;100.00;52407.31;5072685;28;21035;-77
2021/03/15 08:48:20;;;;;;;16.03;2.43;;;;;;;-144.99;100.00;52366.56;5074573;28;20617;-77
2021/03/15 08:50:47;;;;;;;14.57;3.27;;;;;;;-144.99;100.00;52395.09;5073621;28;20627;-74
2021/03/15 08:53:51;;;;;;;13.07;4.90;;;;;;;-144.99;100.00;52441.97;5073122;28;20212;-76
2021/03/15 08:56:39;;;;;;;10.07;3.50;;;;;;;-144.99;100.00;52374.72;5077902;28;20625;-78
2021/03/15 08:59:07;;;;;;;16.27;4.00;;;;;;;-144.99;100.00;52378.78;5076961;28;20627;-77
2021/03/15 09:01:52;;;;;;;13.07;5.20;;;;;;;-144.99;100.00;52382.88;5077296;28;20643;-75
2021/03/15 09:04:40;;;;;;;8.43;3.27;;;;;;;-144.99;100.00;52391.03;5066153;28;20989;-77
2021/03/15 09:07:39;;;;;;;11.27;3.93;;;;;;;-144.99;100.00;52429.75;5074990;28;20621;-77
2021/03/15 09:10:42;;;;;;;18.87;4.63;;;;;;;-144.99;100.00;52397.13;5069708;28;20749;-76
2021/03/15 09:13:26;;;;;;;12.90;2.97;;;;;;;-144.99;100.00;52366.56;5067863;28;20691;-75
2021/03/15 09:15:57;;;;;;;8.67;4.90;;;;;;;-144.99;99.60;52393.06;5071236;28;20303;-76
2021/03/15 09:18:44;;;;;;;16.07;3.23;;;;;;;-144.99;99.25;52419.56;5072435;28;20994;-76
2021/03/15 09:21:45;;;;;;;20.63;5.57;;;;;;;-144.99;98.21;52374.72;5066242;28;20714;-76
2021/03/15 09:24:49;;;;;;;21.10;4.10;;;;;;;-144.99;97.28;52370.63;5066650;28;20620;-75
2021/03/15 09:27:34;;;;;;;20.03;6.73;;;;;;;-144.99;98.19;52382.88;5064903;28;20197;-77
2021/03/15 09:30:03;;;;;;;12.03;3.23;;;;;;;-144.99;98.82;52374.72;5061483;28;20208;-75
2021/03/15 09:32:31;;;;;;;19.30;4.67;;;;;;;-144.99;97.72;52393.06;5067555;28;20213;-75
2021/03/15 09:34:59;;;;;;;10.53;4.70;;;;;;;-144.99;97.54;52386.94;5071350;28;20197;-76
2021/03/15 09:37:26;;;;;;;16.27;5.60;;;;;;;-144.99;97.83;52391.03;5072928;28;20252;-75
2021/03/15 09:39:56;;;;;;;14.93;3.10;;;;;;;-144.99;96.88;52395.09;5075129;28;20250;-76
2021/03/15 09:42:22;;;;;;;13.97;5.10;;;;;;;-144.99;97.61;52393.06;5066208;28;20686;-77
2021/03/15 09:44:48;;;;;;;18.73;4.43;;;;;;;-144.99;97.38;52384.91;5070096;28;20192;-76
2021/03/15 09:47:22;;;;;;;30.10;4.17;;;;;;;-144.99;97.58;52362.50;5070910;28;20655;-75
2021/03/15 09:49:49;;;;;;;22.67;5.93;;;;;;;-144.99;97.38;52362.50;5070999;28;20662;-76
2021/03/15 09:52:17;;;;;;;25.83;4.40;;;;;;;-144.99;97.72;52350.25;5071935;28;20593;-75
2021/03/15 09:54:45;;;;;;;14.53;3.73;;;;;;;-144.99;96.36;52415.47;5075269;28;20208;-76
2021/03/15 09:57:13;;;;;;;15.13;5.10;;;;;;;-144.99;96.12;52407.31;5081632;28;20197;-76
2021/03/15 09:59:39;;;;;;;13.33;6.50;;;;;;;-144.99;95.69;52419.56;5071352;28;20200;-76
2021/03/15 10:02:06;;;;;;;19.43;5.67;;;;;;;-144.99;95.11;52403.25;5073368;28;20278;-74
2021/03/15 10:04:34;;;;;;;13.63;3.23;;;;;;;-144.99;94.36;52403.25;5069650;28;20694;-76
2021/03/15 10:07:02;;;;;;;13.07;4.37;;;;;;;-144.99;94.81;52378.78;5070201;28;20224;-75
2021/03/15 10:09:29;;;;;;;10.70;3.87;;;;;;;-144.99;94.60;52366.56;5069096;28;20690;-75
2021/03/15 10:11:55;;;;;;;22.27;3.60;;;;;;;-144.99;94.91;52370.63;5070619;28;20224;-74
2021/03/15 10:14:24;;;;;;;17.77;4.60;;;;;;;-144.99;94.25;52395.09;5069851;28;20204;-78
2021/03/15 10:17:00;;;;;;;20.97;4.20;;;;;;;-144.99;93.26;52382.88;5070136;28;20394;-75
2021/03/15 10:19:28;;;;;;;34.57;7.83;;;;;;;-144.99;92.98;52338.03;5070833;28;20208;-75
2021/03/15 10:21:55;;;;;;;18.13;4.60;;;;;;;-144.99;91.60;52346.19;5070154;28;20288;-73
2021/03/15 10:24:32;;;;;;;20.53;4.13;;;;;;;-144.99;91.03;52329.88;5070089;28;20205;-76
2021/03/15 10:27:00;;;;;;;22.27;4.83;;;;;;;-144.99;90.21;52364.53;5064073;28;20216;-74
2021/03/15 10:29:28;;;;;;;28.30;6.17;;;;;;;-144.99;90.68;52378.78;5066530;28;20205;-72
2021/03/15 10:31:54;;;;;;;21.30;5.73;;;;;;;-144.99;89.92;52386.94;5070635;28;20779;-76
2021/03/15 10:34:24;;;;;;;18.70;5.87;;;;;;;-144.99;90.25;52391.03;5070416;28;20280;-75
2021/03/15 10:36:51;;;;;;;21.40;5.90;;;;;;;-144.99;89.88;52407.31;5069937;28;20272;-77
2021/03/15 10:39:20;;;;;;;24.00;8.10;;;;;;;-144.99;90.29;52415.47;5069622;28;20212;-77
2021/03/15 10:41:47;;;;;;;16.43;5.77;;;;;;;-144.99;91.65;52403.25;5067285;28;20221;-75
2021/03/15 10:44:13;;;;;;;16.53;3.63;;;;;;;-144.99;91.48;52391.03;5069536;28;20211;-76
2021/03/15 10:46:48;;;;;;;16.93;4.10;;;;;;;-144.99;89.72;52391.03;5067839;28;20201;-75
2021/03/15 10:49:25;;;;;;;20.13;4.00;;;;;;;-144.99;90.68;52342.09;5069915;28;20203;-73
2021/03/15 10:51:52;;;;;;;20.03;9.10;;;;;;;-144.99;91.85;52388.97;5064953;28;20213;-77
2021/03/15 10:54:35;;;;;;;19.90;5.43;;;;;;;-144.99;92.49;52376.75;5069865;28;20201;-78
2021/03/15 10:57:16;;;;;;;22.23;6.47;;;;;;;-144.99;92.69;52417.53;5068980;28;20671;-76
2021/03/15 10:59:44;;;;;;;18.13;5.40;;;;;;;-144.99;92.36;52411.41;5070820;28;20558;-73
2021/03/15 11:02:22;;;;;;;12.47;3.50;;;;;;;-144.99;90.54;52386.94;5065420;28;20271;-76
2021/03/15 11:04:53;;;;;;;10.77;3.20;;;;;;;-144.99;89.79;52399.19;5074150;28;20196;-77
2021/03/15 11:07:22;;;;;;;17.00;5.40;;;;;;;-144.99;87.10;52329.88;5071243;28;20591;-75
2021/03/15 11:10:00;;;;;;;15.07;4.30;;;;;;;-144.99;84.22;52297.25;5073577;28;20201;-73
2021/03/15 11:12:38;;;;;;;13.80;3.47;;;;;;;-144.99;82.72;52336.00;5073861;28;20262;-75
2021/03/15 11:15:12;;;;;;;6.90;2.83;;;;;;;-144.99;85.81;52399.19;5072013;28;20271;-75
2021/03/15 11:17:40;;;;;;;15.30;4.37;;;;;;;-144.99;89.61;52391.03;5072973;28;20279;-76
2021/03/15 11:20:09;;;;;;;18.47;4.00;;;;;;;-144.99;92.91;52419.56;5071002;28;20292;-77
2021/03/15 11:22:49;;;;;;;8.90;2.23;;;;;;;-144.99;93.10;52403.25;5059979;28;20308;-76